首页
METAR-TAF:

METAR-TAF

机场 :

波尔查诺, 意大利

纬度: 46-28N, 经度: 011-20E, 海拔: 262米

当前天气观测

该预报发布于11分钟前的06:50 UTC
风速2节,风向多变
温度 14°C
湿度 100%
气压 1018 hPa
能见度10公里或以上
少量云层高于3000英尺
多云层高于5500英尺

METAR: LIPB 200650Z VRB02KT 9999 FEW030 BKN055 14/14 Q1018

时间: 09:01 (07:01 UTC)

预报

该预报发布于2小时和1分钟前的05:00 UTC
预报有效从20日的 06点(UTC)到 21日的 06点(UTC)
风速5节,风向多变
能见度10公里或以上
散云层高于4000英尺

TAF: LIPB 200500Z 2006/2106 VRB05KT 9999 SCT040

超过4000个机场的气象观测和天气预报(METAR&TAF报告)。

可查询的气象台以黄色和红色小点在地图上表示。

将鼠标移到小点上方,可查看气象台名称。

然后点击查看天气观测和预报。

如需切换地图:点击带黑十字的绿色按钮放大地图;点击带横线的绿色按钮缩小地图;或者点击绿色箭头查看邻近地区的地图。


METAR-TAF: